Amherst, CO

6:10 PM MDT on May 28, 2015 (GMT -0600)
Holyoke Municipal | | Change Station
CLOSE
Current Station
Airport
Location: Holyoke AP, Holyoke, CO,
Elevation: 3730 ft
Nearby Weather Stations

Elev 3730 ft 40.57 °N, 102.28 °W | Updated 15 minutes ago

Thunderstorm
Thunderstorm
61 °F
Feels Like 61 °F
N
10
Wind Variable Wind from South

Today
High -- | Low -- °F
--% Chance of Precip.
Yesterday
High -- | Low -- °F
Precip. -- in
5:21 AM 8:10 PM
Waxing Gibbous, 79% visible
Pressure 29.96 in
Visibility 10.0 miles
Clouds Scattered Clouds 900 ft
Mostly Cloudy 1500 ft
Overcast 8000 ft
Dew Point 54 °F
Humidity 77%
Rainfall 0.38 in
Snow Depth Not available.
UV 1 out of 12
Pollen 8.00 out of 12
Air Quality Not available.
Flu Activity Sporadic
METAR KHEQ 282355Z AUTO 19009KT 10SM -TSRA SCT009 BKN015 OVC080 16/12 A2996 RMK AO2 P0013 LTG DSNT NE THRU S

More Conditions Fewer Conditions

Pressure 29.96 in
Visibility 10.0 miles
Clouds Scattered Clouds 900 ft
Mostly Cloudy 1500 ft
Overcast 8000 ft
Dew Point 54 °F
Humidity 77%
Rainfall 0.38 in
Snow Depth Not available.
UV 1 out of 12
Pollen 8.00 out of 12
Air Quality Not available.
Flu Activity Sporadic
METAR KHEQ 282355Z AUTO 19009KT 10SM -TSRA SCT009 BKN015 OVC080 16/12 A2996 RMK AO2 P0013 LTG DSNT NE THRU S

More Conditions Fewer Conditions

10-Day Weather Forecast

Almanac

Astronomy

May. 28, 2015 Rise Set
Actual Time
Civil Twilight
Nautical Twilight
Astronomical Twilight
Moon
Length of Visible Light
Length of Day
Tomorrow will be .
, % of the Moon is Illuminated

Today's Extremes

State Highs State Lows

Community

WunderPhotos

Upload Photos

1,825,097 photos uploaded!

WunderBlogs® & News

Nearby

Air Quality

  Air Quality AQ Index Pollutant
Not available.

Snow Depth

Station Depth Elevation

Earthquake Activity

City Distance Mag. Time & Date
Minimum magnitude displayed is 2.5.

Coastal Water Temperatures

Place Temperature

Stations

Nearby Weather Stations

Station Location Temp. Windchill Dew Point Humidity Wind Precip. Elev Updated Type